NEODyS-2

Near Earth Objects - Dynamic Site
NEODyS ∴ Observatories ∴ Site 691 ∴ Obs & residuals
Contact »
691  ▹ 
OBSERVATIONS AND RESIDUALS

691-Steward Observatory, Kitt Peak-Spacewatch

Detections | Residuals | Detections & Residuals

[1-200] [201-400] [401-600] [601-800] [801-1000] [1001-1200] [1201-1400] [1401-1600] [1601-1800] [1801-2000] [2001-2200] [2201-2400] [2401-2600] [2601-2800] [2801-3000] [3001-3200] [3201-3400] [3401-3600] [3601-3800] [3801-4000] [4001-4200] [4201-4400] [4401-4600] [4601-4800] [4801-5000] [5001-5200] [5201-5400] [5401-5600] [5601-5800] [5801-6000] [6001-6200] [6201-6400] [6401-6600] [6601-6800] [6801-7000] [7001-7200] [7201-7400] [7401-7600] [7601-7800] [7801-8000] [8001-8200] [8201-8400] [8401-8600] [8601-8800] [8801-9000] [9001-9200] [9201-9400] [9401-9600] [9601-9800] [9801-10000] [10001-10200] [10201-10400] [10401-10600] [10601-10800] [10801-11000] [11001-11200] [11201-11400] [11401-11600] [11601-11800] [11801-12000] [12001-12200] [12201-12400] [12401-12600] [12601-12800] [12801-13000] [13001-13200] [13201-13400] [13401-13600] [13601-13800] [13801-14000] [14001-14200] [14201-14400] [14401-14600] [14601-14800] [14801-15000] [15001-15200] [15201-15400] [15401-15600] [15601-15800] [15801-16000] [16001-16200] [16201-16400] [16401-16600] [16601-16800] [16801-17000] [17001-17200] [17201-17400] [17401-17600] [17601-17800] [17801-18000] [18001-18200] [18201-18400] [18401-18600] [18601-18800] [18801-19000] [19001-19200] [19201-19400] [19401-19600] [19601-19800] [19801-20000] [20001-20200] [20201-20400] [20401-20600] [20601-20800] [20801-21000] [21001-21200] [21201-21400] [21401-21600] [21601-21800] [21801-22000] [22001-22200] [22201-22400] [22401-22600] [22601-22800] [22801-23000] [23001-23200] [23201-23400] [23401-23600] [23601-23800] [23801-24000] [24001-24200] [24201-24400] [24401-24600] [24601-24800] [24801-25000] [25001-25200] [25201-25400] [25401-25600] [25601-25800] [25801-26000] [26001-26200] [26201-26400] [26401-26600] [26601-26800] [26801-27000] [27001-27200] [27201-27400] [27401-27600] [27601-27800] [27801-28000] [28001-28200] [28201-28400] [28401-28600] [28601-28800] [28801-29000] [29001-29200] [29201-29400] [29401-29600] [29601-29800] [29801-30000] [30001-30200] [30201-30400] [30401-30600] [30601-30800] [30801-31000] [31001-31200] [31201-31400] [31401-31600] [31601-31800] [31801-32000] [32001-32200] [32201-32400] [32401-32600] [32601-32800] [32801-33000] [33001-33200] [33201-33400] [33401-33600] [33601-33800] [33801-34000] [34001-34200] [34201-34400] [34401-34600] [34601-34800] [34801-35000] [35001-35200] [35201-35400] [35401-35600] [35601-35800] [35801-36000] [36001-36200] [36201-36400] [36401-36600] [36601-36800] [36801-37000] [37001-37200] [37201-37400] [37401-37600] [37601-37800] [37801-38000] [38001-38200] [38201-38400] [38401-38600] [38601-38800] [38801-39000] [39001-39200] [39201-39400] [39401-39600] [39601-39800] [39801-40000] [40001-40200] [40201-40400] [40401-40600] [40601-40800] [40801-41000] [41001-41200] [41201-41400] [41401-41600] [41601-41800] [41801-42000] [42001-42200] [42201-42400] [42401-42600] [42601-42800] [42801-43000] [43001-43200] [43201-43400] [43401-43600] [43601-43800] [43801-44000] [44001-44200] [44201-44400] [44401-44600] [44601-44800] [44801-45000] [45001-45200] [45201-45400] [45401-45600] [45601-45800] [45801-46000] [46001-46200] [46201-46400] [46401-46600] [46601-46800] [46801-47000] [47001-47200] [47201-47400] [47401-47600] [47601-47800] [47801-48000] [48001-48200] [48201-48400] [48401-48600] [48601-48800] [48801-49000] [49001-49200] [49201-49400] [49401-49600] [49601-49800] [49801-50000] [50001-50200] [50201-50388]

Designation T Tech N Date Right Ascension Declination Apparent Magnitude Star Catalog Site code χ Used A Used M
yr-mo-day precision hr:min:sec precision rms F bias residual deg min sec precision rms F bias residual mag/col rms residual
1995YR1 O c 1995-12-25.13702 1.000E-05 03:14:01.960 1.500E-01 0.600 F 0.077 -0.127 +12° 57' 35.10" 1.000E-01 0.600 F -0.226 0.019 20.9 V 0.70 0.26 i 691 0.21 Yes Yes
1995YR1 O c 1995-12-25.14422 1.000E-05 03:13:59.690 1.500E-01 0.600 F 0.077 0.306 +12° 57' 27.70" 1.000E-01 0.600 F -0.226 -0.153 21.0 V 0.70 0.36 i 691 0.57 Yes Yes
1995YR1 O c 1995-12-25.15153 1.000E-05 03:13:57.360 1.500E-01 0.600 F 0.077 0.384 +12° 57' 20.30" 1.000E-01 0.600 F -0.226 -0.206 i 691 0.73 Yes No
1991CS O c 1995-12-25.53969 1.000E-05 14:07:43.980 1.500E-01 0.600 F -0.939 -0.045 -06° 37' 01.10" 1.000E-01 0.600 F 0.023 0.005 20.1 V 0.70 0.07 i 691 0.08 Yes Yes
1991CS O c 1995-12-25.54424 1.000E-05 14:07:44.850 1.500E-01 0.600 F -0.939 -0.044 -06° 36' 58.20" 1.000E-01 0.600 F 0.023 0.161 20.1 V 0.70 0.07 i 691 0.28 Yes Yes
1991CS O c 1995-12-25.54890 1.000E-05 14:07:45.730 1.500E-01 0.600 F -0.939 -0.204 -06° 36' 55.80" 1.000E-01 0.600 F 0.023 -0.251 20.3 V 0.70 0.27 i 691 0.54 Yes Yes
1994CC O c 1995-12-26.41767 1.000E-05 09:10:58.380 1.500E-01 0.600 F 0.310 -0.336 +12° 22' 16.90" 1.000E-01 0.600 F -0.189 0.120 21.2 V 0.70 -0.05 i 691 0.60 Yes Yes
1994CC O c 1995-12-26.43907 1.000E-05 09:10:57.390 1.500E-01 0.600 F 0.310 -0.303 +12° 22' 17.00" 1.000E-01 0.600 F -0.189 -0.289 21.6 V 0.70 0.35 i 691 0.70 Yes Yes
1994CC O c 1995-12-26.46363 1.000E-05 09:10:56.230 1.500E-01 0.600 F 0.310 -0.601 +12° 22' 17.90" 1.000E-01 0.600 F -0.189 0.047 21.2 V 0.70 -0.05 i 691 1.01 Yes Yes
2009DC43 O C 1995-12-27.23055 1.000E-05 04:03:15.490 1.500E-01 0.600 F 0.045 0.051 +14° 25' 21.30" 1.000E-01 0.600 F 0.057 0.195 21.9 V 0.70 -0.33 a 691 0.33 Yes Yes
2009DC43 O C 1995-12-27.25478 1.000E-05 04:03:13.920 1.500E-01 0.600 F 0.045 0.241 +14° 25' 27.00" 1.000E-01 0.600 F 0.057 0.397 22.0 V 0.70 -0.23 a 691 0.77 Yes Yes
2009DC43 O C 1995-12-27.27508 1.000E-05 04:03:12.570 1.500E-01 0.600 F 0.045 -0.133 +14° 25' 30.80" 1.000E-01 0.600 F 0.057 -0.393 21.4 V 0.70 -0.83 a 691 0.70 Yes Yes
1996AJ1 O c 1996-01-12.44030 1.000E-05 08:30:02.950 1.500E-01 0.600 F -0.282 -0.033 +22° 13' 36.00" 1.000E-01 0.600 F 0.232 -0.256 20.5 V 0.70 0.22 i 691 0.43 Yes Yes
1996AJ1 O c 1996-01-12.46342 1.000E-05 08:29:55.890 1.500E-01 0.600 F -0.282 0.139 +22° 14' 00.80" 1.000E-01 0.600 F 0.232 -0.204 20.4 V 0.70 0.12 i 691 0.42 Yes Yes
1996AJ1 O c 1996-01-12.48627 1.000E-05 08:29:48.910 1.500E-01 0.600 F -0.282 0.027 +22° 14' 25.30" 1.000E-01 0.600 F 0.232 -0.034 20.5 V 0.70 0.22 i 691 0.07 Yes Yes
1995LE O C 1996-01-13.16219 1.000E-05 03:27:52.250 1.500E-01 0.600 F 0.027 -0.292 +18° 46' 57.90" 1.000E-01 0.600 F 0.186 0.254 20.5 0.70 -0.86 i 691 0.65 Yes Yes
1995LE O C 1996-01-13.17196 1.000E-05 03:27:52.660 1.500E-01 0.600 F 0.027 0.263 +18° 46' 57.70" 1.000E-01 0.600 F 0.186 -0.141 20.5 0.70 -0.86 i 691 0.50 Yes Yes
1996AJ1 O C 1996-01-13.18043 1.000E-05 08:26:23.910 1.500E-01 0.735 F -0.129 -0.792 +22° 26' 43.40" 1.000E-01 0.735 F 0.027 -0.149 21.0 0.70 -0.07 i 691 1.11 Yes Yes
1996AJ1 O C 1996-01-13.18689 1.000E-05 08:26:22.050 1.500E-01 0.735 F -0.129 0.188 +22° 26' 50.70" 1.000E-01 0.735 F 0.027 0.218 20.8 0.70 -0.27 i 691 0.39 Yes Yes
1996AJ1 O C 1996-01-13.18906 1.000E-05 08:26:21.370 1.500E-01 0.735 F -0.129 -0.244 +22° 26' 51.80" 1.000E-01 0.735 F 0.027 -1.009 20.7 0.70 -0.37 i 691 1.42 Yes Yes
1996AS1 O c 1996-01-13.34498 1.000E-05 08:47:33.180 1.500E-01 0.600 F 0.414 -0.128 +15° 09' 36.40" 1.000E-01 0.600 F 0.640 -0.413 21.1 V 0.70 -0.32 i 691 0.72 Yes Yes
1996AS1 O c 1996-01-13.36643 1.000E-05 08:47:31.400 1.500E-01 0.600 F 0.414 0.777 +15° 09' 35.70" 1.000E-01 0.600 F 0.640 -0.398 20.4 V 0.70 -1.02 i 691 1.47 Yes Yes
1996AS1 O c 1996-01-13.38802 1.000E-05 08:47:29.440 1.500E-01 0.600 F 0.414 -0.741 +15° 09' 34.80" 1.000E-01 0.600 F 0.640 -0.553 21.3 V 0.70 -0.12 i 691 1.55 Yes Yes
1994CC O C 1996-01-13.39502 1.000E-05 08:51:58.500 1.500E-01 0.600 F 0.259 0.161 +12° 53' 32.00" 1.000E-01 0.600 F -0.128 -0.142 20.7 0.70 -0.81 i 691 0.36 Yes Yes
1994CC O C 1996-01-13.40479 1.000E-05 08:51:57.710 1.500E-01 0.600 F 0.259 0.475 +12° 53' 33.70" 1.000E-01 0.600 F -0.128 -0.166 i 691 0.84 Yes No
1996AJ1 O c 1996-01-13.48585 1.000E-05 08:24:52.250 1.500E-01 0.735 F -0.129 -0.356 +22° 31' 59.70" 1.000E-01 0.735 F 0.027 -0.007 20.1 V 0.70 -0.16 i 691 0.49 Yes Yes
1996AJ1 O c 1996-01-13.49005 1.000E-05 08:24:50.980 1.500E-01 0.735 F -0.129 -0.626 +22° 32' 04.10" 1.000E-01 0.735 F 0.027 0.218 20.2 V 0.70 -0.06 i 691 0.92 Yes Yes
1996AJ1 O c 1996-01-13.49512 1.000E-05 08:24:49.510 1.500E-01 0.735 F -0.129 -0.092 +22° 32' 08.20" 1.000E-01 0.735 F 0.027 -0.717 20.4 V 0.70 0.14 i 691 0.99 Yes Yes
1996AW1 O c 1996-01-14.18701 1.000E-05 03:47:08.100 1.500E-01 0.600 F -0.110 0.224 +14° 59' 08.60" 1.000E-01 0.600 F 0.334 -0.599 21.0 V 0.70 0.38 i 691 1.07 Yes Yes
1996AW1 O c 1996-01-14.20876 1.000E-05 03:47:11.060 1.500E-01 0.600 F -0.110 -0.116 +14° 59' 34.80" 1.000E-01 0.600 F 0.334 -0.923 20.7 V 0.70 0.08 i 691 1.56 Yes Yes
1996AW1 O c 1996-01-14.23041 1.000E-05 03:47:14.030 1.500E-01 0.600 F -0.110 -0.189 +15° 00' 01.80" 1.000E-01 0.600 F 0.334 -0.236 20.5 V 0.70 -0.12 i 691 0.51 Yes Yes
1996AS1 O C 1996-01-14.37760 1.000E-05 08:46:06.070 1.500E-01 0.600 F 0.446 0.082 +15° 09' 02.80" 1.000E-01 0.600 F 0.066 -0.002 i 691 0.14 Yes No
1996AS1 O C 1996-01-14.38250 1.000E-05 08:46:05.650 1.500E-01 0.600 F 0.446 0.194 +15° 09' 02.90" 1.000E-01 0.600 F 0.066 0.254 i 691 0.53 Yes No
1996AJ1 O C 1996-01-14.39231 1.000E-05 08:20:29.780 1.500E-01 0.600 F 0.098 1.349 +22° 47' 00.00" 1.000E-01 0.600 F -0.042 -0.492 20.6 0.70 -0.45 i 691 2.45 Yes Yes
1996AJ1 O C 1996-01-14.39867 1.000E-05 08:20:27.900 1.500E-01 0.600 F 0.098 1.153 +22° 47' 06.40" 1.000E-01 0.600 F -0.042 -0.137 20.9 0.70 -0.15 i 691 1.98 Yes Yes
1996AP1 O c 1996-01-14.41640 1.000E-05 09:27:30.910 1.500E-01 0.671 F -0.114 0.481 +06° 51' 20.10" 1.000E-01 0.671 F -0.171 -6.035 20.0 V 0.70 0.92 i 691 8.18 No Yes
1996AP1 O c 1996-01-14.43747 1.000E-05 09:27:39.950 1.500E-01 0.671 F -0.114 0.039 +06° 54' 58.40" 1.000E-01 0.671 F -0.171 -0.533 i 691 0.90 Yes No
1996AP1 O c 1996-01-14.45850 1.000E-05 09:27:49.070 1.500E-01 0.671 F -0.114 0.675 +06° 58' 30.10" 1.000E-01 0.671 F -0.171 -0.023 19.5 V 0.70 0.41 i 691 1.12 Yes Yes
1996AP1 O c 1996-01-14.48987 1.000E-05 09:28:02.720 1.500E-01 0.671 F -0.114 0.825 +07° 03' 43.80" 1.000E-01 0.671 F -0.171 0.851 19.4 V 0.70 0.31 i 691 2.02 Yes Yes
1996AP1 O C 1996-01-14.52721 1.000E-05 09:28:19.060 1.500E-01 0.671 F -0.262 -1.163 +07° 09' 51.50" 1.000E-01 0.671 F 0.039 -0.686 i 691 2.36 Yes No
1996AW1 O c 1996-01-15.15108 1.000E-05 03:49:25.080 1.500E-01 0.600 F -0.379 -3.412 +15° 18' 28.10" 1.000E-01 0.600 F -0.664 -0.459 20.5 V 0.70 -0.18 i 691 5.63 No Yes
1996AW1 O c 1996-01-15.15579 1.000E-05 03:49:25.890 1.500E-01 0.600 F -0.379 -0.878 +15° 18' 34.30" 1.000E-01 0.600 F -0.664 0.179 19.9 V 0.70 -0.78 i 691 1.52 Yes Yes
1996AW1 O c 1996-01-15.15968 1.000E-05 03:49:26.480 1.500E-01 0.600 F -0.379 0.073 +15° 18' 38.60" 1.000E-01 0.600 F -0.664 -0.111 20.3 V 0.70 -0.38 i 691 0.22 Yes Yes
1996AP1 O c 1996-01-15.27459 1.000E-05 09:34:19.810 1.500E-01 0.600 F 0.483 0.436 +09° 05' 33.60" 1.000E-01 0.600 F 0.160 0.342 i 691 1.28 Yes No
1996AE2 O c 1996-01-15.31599 1.000E-05 09:20:49.040 1.500E-01 0.735 F 0.090 0.116 +05° 29' 01.10" 1.000E-01 0.735 F -0.106 -11.298 i 691 15.23 No No
1996AE2 O c 1996-01-15.33682 1.000E-05 09:20:47.210 1.500E-01 0.735 F 0.090 -0.911 +05° 35' 17.00" 1.000E-01 0.735 F -0.106 -0.349 17.5 V 0.70 0.23 i 691 1.35 Yes Yes
1996AE2 O c 1996-01-15.35773 1.000E-05 09:20:45.440 1.500E-01 0.735 F 0.010 -0.546 +05° 41' 23.20" 1.000E-01 0.735 F -0.128 -0.526 17.4 V 0.70 0.13 i 691 1.05 Yes Yes
1996AE2 O c 1996-01-15.39424 1.000E-05 09:20:42.290 1.500E-01 0.735 F 0.010 -0.554 +05° 52' 03.30" 1.000E-01 0.735 F -0.128 -0.261 i 691 0.85 Yes No
1996AP1 O c 1996-01-15.39964 1.000E-05 09:35:05.070 1.500E-01 0.600 F 0.413 -0.181 +09° 23' 31.20" 1.000E-01 0.600 F 0.149 -0.574 19.5 V 0.70 0.24 i 691 1.07 Yes Yes
1996AS1 O c 1996-01-15.40898 1.000E-05 08:44:37.620 1.500E-01 0.600 F 0.292 -0.087 +15° 08' 32.70" 1.000E-01 0.600 F 0.413 0.042 20.9 V 0.70 -0.45 i 691 0.16 Yes Yes
1996AS1 O c 1996-01-15.41329 1.000E-05 08:44:37.210 1.500E-01 0.600 F 0.292 -0.501 +15° 08' 32.50" 1.000E-01 0.600 F 0.413 -0.024 21.3 V 0.70 -0.05 i 691 0.84 Yes Yes
1996AS1 O c 1996-01-15.41718 1.000E-05 08:44:36.840 1.500E-01 0.600 F 0.292 -0.874 +15° 08' 32.40" 1.000E-01 0.600 F 0.413 -0.002 21.1 V 0.70 -0.25 i 691 1.47 Yes Yes
1996AE2 O c 1996-01-15.47006 1.000E-05 09:20:35.850 1.500E-01 0.735 F 0.010 -0.126 +06° 14' 12.70" 1.000E-01 0.735 F -0.128 0.212 i 691 0.34 Yes No
1996AP1 O c 1996-01-15.51953 1.000E-05 09:35:47.810 1.500E-01 0.600 F 0.413 0.336 +09° 40' 09.00" 1.000E-01 0.600 F 0.149 -0.088 i 691 0.62 Yes No
1996AE2 O c 1996-01-15.52793 1.000E-05 09:20:31.140 1.500E-01 0.735 F -0.035 -0.513 +06° 31' 06.80" 1.000E-01 0.735 F -0.161 -0.070 i 691 0.72 Yes No
1996AE2 O c 1996-01-16.44435 1.000E-05 09:19:31.990 1.500E-01 0.600 F 0.035 -0.021 +11° 00' 32.30" 1.000E-01 0.600 F -0.056 0.679 17.1 V 0.70 -0.05 i 691 1.15 Yes Yes
1996AE2 O c 1996-01-16.44878 1.000E-05 09:19:31.570 1.500E-01 0.600 F 0.035 -0.290 +11° 01' 50.20" 1.000E-01 0.600 F -0.056 0.423 i 691 0.86 Yes No
1996AP1 O c 1996-01-16.45380 1.000E-05 09:41:46.930 1.500E-01 0.600 F 0.104 -1.509 +11° 39' 28.00" 1.000E-01 0.600 F -0.204 0.202 i 691 2.75 Yes No
1996AP1 O c 1996-01-16.45757 1.000E-05 09:41:48.180 1.500E-01 0.600 F 0.104 0.646 +11° 39' 55.10" 1.000E-01 0.600 F -0.204 0.959 i 691 2.22 Yes No
1996AP1 O c 1996-01-16.50684 1.000E-05 09:42:02.710 1.500E-01 0.600 F 0.104 -0.334 +11° 45' 35.20" 1.000E-01 0.600 F -0.204 -0.307 19.4 V 0.70 -0.06 i 691 0.88 Yes Yes
1996AE2 O c 1996-01-16.51148 1.000E-05 09:19:26.060 1.500E-01 0.600 F 0.035 -0.013 +11° 20' 15.20" 1.000E-01 0.600 F -0.056 0.118 i 691 0.20 Yes No
1995YR1 O C 1996-01-19.12285 1.000E-05 01:14:42.040 1.500E-01 0.600 F -0.171 -0.723 +05° 33' 03.90" 1.000E-01 0.600 F -0.183 -0.047 21.3 V 0.70 0.18 i 691 1.32 Yes Yes
1995YR1 O C 1996-01-19.13293 1.000E-05 01:14:39.610 1.500E-01 0.600 F -0.171 1.447 +05° 32' 54.20" 1.000E-01 0.600 F -0.183 0.632 i 691 2.89 Yes No
1995YR1 O C 1996-01-19.14155 1.000E-05 01:14:37.420 1.500E-01 0.600 F -0.171 1.600 +05° 32' 44.10" 1.000E-01 0.600 F -0.183 -0.589 i 691 3.01 Yes No
1996BT O c 1996-01-19.35463 1.000E-05 08:26:13.440 1.500E-01 0.600 F 0.400 0.596 +15° 45' 34.80" 1.000E-01 0.600 F 0.302 -0.405 20.2 V 0.70 0.23 i 691 1.34 Yes Yes
1996BT O c 1996-01-19.37659 1.000E-05 08:25:59.980 1.500E-01 0.600 F 0.541 -0.176 +15° 45' 16.40" 1.000E-01 0.600 F 0.455 -0.648 20.1 V 0.70 0.13 i 691 1.19 Yes Yes
1996BT O c 1996-01-19.39835 1.000E-05 08:25:46.600 1.500E-01 0.600 F 0.541 -0.977 +15° 44' 58.30" 1.000E-01 0.600 F 0.455 -0.302 20.2 V 0.70 0.24 i 691 1.95 Yes Yes
1996BT O c 1996-01-20.21316 1.000E-05 08:17:11.380 1.500E-01 0.600 F -0.316 0.647 +15° 32' 24.10" 1.000E-01 0.600 F 0.539 0.130 20.3 V 0.70 0.57 i 691 1.36 Yes Yes
1996BT O c 1996-01-20.23306 1.000E-05 08:16:57.510 1.500E-01 0.600 F -0.316 -0.393 +15° 32' 04.20" 1.000E-01 0.600 F 0.540 -0.080 19.9 V 0.70 0.18 i 691 0.80 Yes Yes
1996AS1 O c 1996-01-20.25207 1.000E-05 08:37:27.200 1.500E-01 0.600 F 0.040 0.262 +15° 06' 41.80" 1.000E-01 0.600 F 0.253 -0.585 21.7 V 0.70 0.51 i 691 1.08 Yes Yes
1996AS1 O c 1996-01-20.27410 1.000E-05 08:37:25.120 1.500E-01 0.600 F 0.040 -0.102 +15° 06' 41.80" 1.000E-01 0.600 F 0.253 -0.276 22.0 V 0.70 0.81 i 691 0.49 Yes Yes
1996AS1 O c 1996-01-20.29977 1.000E-05 08:37:22.700 1.500E-01 0.600 F 0.040 -0.415 +15° 06' 42.40" 1.000E-01 0.600 F 0.253 0.715 21.2 V 0.70 0.02 i 691 1.39 Yes Yes
1996BT O c 1996-01-20.41372 1.000E-05 08:14:49.730 1.500E-01 0.600 F -0.118 -0.792 +15° 28' 51.80" 1.000E-01 0.600 F 0.625 -0.813 19.8 V 0.70 0.13 i 691 1.99 Yes Yes
1996BT O c 1996-01-20.42402 1.000E-05 08:14:42.470 1.500E-01 0.600 F -0.118 0.816 +15° 28' 41.30" 1.000E-01 0.600 F 0.625 0.341 20.1 V 0.70 0.43 i 691 1.58 Yes Yes
1996AW1 O C 1996-01-21.18382 1.000E-05 04:03:00.520 1.500E-01 0.600 F -0.169 0.798 +17° 04' 44.90" 1.000E-01 0.600 F -0.083 0.255 20.3 0.70 -1.55 i 691 1.42 Yes Yes
1996AW1 O C 1996-01-21.19562 1.000E-05 04:03:01.920 1.500E-01 0.600 F -0.169 -0.270 +17° 04' 56.30" 1.000E-01 0.600 F -0.083 0.575 20.2 0.70 -1.65 i 691 1.06 Yes Yes
1996BG1 O c 1996-01-21.28838 1.000E-05 09:22:53.010 1.500E-01 0.600 F 0.112 -0.211 +07° 21' 35.80" 1.000E-01 0.600 F 0.038 -0.510 20.6 V 0.70 -0.51 i 691 0.97 Yes Yes
1996BG1 O c 1996-01-21.31773 1.000E-05 09:22:45.900 1.500E-01 0.600 F 0.112 -0.388 +07° 22' 26.50" 1.000E-01 0.600 F 0.038 -0.678 21.3 V 0.70 0.19 i 691 1.38 Yes Yes
1996BG1 O c 1996-01-21.33879 1.000E-05 09:22:40.800 1.500E-01 0.600 F 0.112 -0.073 +07° 23' 03.00" 1.000E-01 0.600 F 0.038 -0.610 20.8 V 0.70 -0.30 i 691 1.08 Yes Yes
1996BT O c 1996-01-21.35604 1.000E-05 08:02:59.080 1.500E-01 0.600 F 0.029 0.346 +15° 09' 19.70" 1.000E-01 0.600 F 0.052 0.262 18.9 V 0.70 -0.59 i 691 0.77 Yes Yes
1996BT O c 1996-01-21.36170 1.000E-05 08:02:54.400 1.500E-01 0.600 F 0.029 0.955 +15° 09' 11.20" 1.000E-01 0.600 F 0.052 -0.065 19.1 V 0.70 -0.39 i 691 1.71 Yes Yes
1996BT O c 1996-01-21.36744 1.000E-05 08:02:49.570 1.500E-01 0.600 F 0.029 0.404 +15° 09' 02.90" 1.000E-01 0.600 F 0.052 -0.048 19.0 V 0.70 -0.49 i 691 0.73 Yes Yes
1996BA1 O c 1996-01-21.45632 1.000E-05 10:22:04.470 1.500E-01 0.600 F -0.017 0.079 +17° 11' 07.00" 1.000E-01 0.600 F -0.134 0.286 19.5 V 0.70 0.02 i 691 0.50 Yes Yes
1996BA1 O c 1996-01-21.49761 1.000E-05 10:22:05.900 1.500E-01 0.600 F -0.017 0.074 +17° 10' 04.30" 1.000E-01 0.600 F -0.134 -0.153 19.5 V 0.70 0.02 i 691 0.29 Yes Yes
1996BA1 O c 1996-01-21.52034 1.000E-05 10:22:06.700 1.500E-01 0.600 F -0.017 -0.063 +17° 09' 29.80" 1.000E-01 0.600 F -0.134 -0.185 19.6 V 0.70 0.12 i 691 0.33 Yes Yes
1996BG1 O C 1996-01-24.22219 1.000E-05 09:11:05.150 1.500E-01 0.600 F 0.370 0.959 +08° 52' 06.60" 1.000E-01 0.600 F 0.773 0.379 i 691 1.82 Yes No
1996BG1 O C 1996-01-24.22795 1.000E-05 09:11:03.550 1.500E-01 0.600 F 0.370 0.628 +08° 52' 18.80" 1.000E-01 0.600 F 0.773 0.961 i 691 2.04 Yes No
1996AP1 O C 1996-01-24.36788 1.000E-05 10:08:21.530 1.500E-01 0.600 F 0.118 0.863 +20° 48' 45.80" 1.000E-01 0.600 F -0.277 0.821 20.8 0.70 -0.57 i 691 2.43 Yes Yes
1996AP1 O C 1996-01-24.37249 1.000E-05 10:08:21.740 1.500E-01 0.600 F 0.118 -0.566 +20° 48' 55.50" 1.000E-01 0.600 F -0.277 -0.642 20.8 0.70 -0.57 i 691 1.75 Yes Yes
1996AP1 O C 1996-01-24.37691 1.000E-05 10:08:22.080 1.500E-01 0.600 F 0.118 0.019 +20° 49' 06.40" 1.000E-01 0.600 F -0.277 -0.415 20.7 0.70 -0.67 i 691 0.84 Yes Yes
2017DO36 O C 1996-01-24.40012 1.000E-05 10:43:08.620 1.500E-01 0.600 F 0.213 0.160 +16° 51' 08.20" 1.000E-01 0.600 F -0.399 -0.021 20.7 V 0.70 0.04 a 691 0.30 Yes Yes
2017DO36 O C 1996-01-24.42203 1.000E-05 10:43:07.020 1.500E-01 0.600 F 0.213 -0.018 +16° 51' 56.10" 1.000E-01 0.600 F -0.399 -0.065 20.6 V 0.70 -0.06 a 691 0.13 Yes Yes
2017DO36 O C 1996-01-24.44386 1.000E-05 10:43:05.480 1.500E-01 0.600 F 0.213 0.596 +16° 52' 43.30" 1.000E-01 0.600 F -0.399 -0.608 19.9 V 0.70 -0.76 a 691 1.43 Yes Yes
2018VV1 O C 1996-01-25.15096 1.000E-05 04:12:28.750 1.500E-01 0.600 F 0.052 -0.117 +18° 09' 09.10" 1.000E-01 0.600 F 0.014 0.202 19.0 0.70 -1.17 i 691 0.42 Yes Yes
2018VV1 O C 1996-01-25.15868 1.000E-05 04:12:29.780 1.500E-01 0.600 F 0.052 0.045 +18° 09' 15.60" 1.000E-01 0.600 F 0.014 -0.010 19.2 0.70 -0.97 i 691 0.10 Yes Yes
1996BA1 O c 1996-01-25.44001 1.000E-05 10:24:36.830 1.500E-01 0.600 F 0.520 -0.399 +15° 29' 45.70" 1.000E-01 0.600 F 0.485 -0.564 19.6 V 0.70 0.27 i 691 1.17 Yes Yes
1996BA1 O c 1996-01-25.46175 1.000E-05 10:24:37.280 1.500E-01 0.600 F 0.520 -0.699 +15° 29' 11.50" 1.000E-01 0.600 F 0.485 -0.491 19.4 V 0.70 0.07 i 691 1.44 Yes Yes
1996BA1 O c 1996-01-25.48464 1.000E-05 10:24:37.820 1.500E-01 0.600 F 0.520 -0.232 +15° 28' 35.30" 1.000E-01 0.600 F 0.485 -0.471 19.7 V 0.70 0.37 i 691 0.89 Yes Yes
1996AS1 O c 1996-01-27.30566 1.000E-05 08:26:31.580 1.500E-01 0.600 F 0.270 -0.295 +15° 05' 00.50" 1.000E-01 0.600 F 0.417 -0.126 i 691 0.54 Yes No
1996AS1 O c 1996-01-27.32756 1.000E-05 08:26:29.440 1.500E-01 0.600 F 0.270 -0.806 +15° 05' 00.10" 1.000E-01 0.600 F 0.417 -0.248 21.3 V 0.70 0.27 i 691 1.41 Yes Yes
1996AS1 O c 1996-01-27.34914 1.000E-05 08:26:27.380 1.500E-01 0.600 F 0.270 -0.614 +15° 04' 59.70" 1.000E-01 0.600 F 0.417 -0.348 i 691 1.18 Yes No
1996BA1 O c 1996-01-28.50786 1.000E-05 10:26:00.600 1.500E-01 0.600 F 0.171 -0.007 +14° 08' 33.50" 1.000E-01 0.600 F 0.233 -0.450 i 691 0.77 Yes No
1996BA1 O c 1996-01-28.52413 1.000E-05 10:26:00.840 1.500E-01 0.600 F 0.171 -0.075 +14° 08' 06.90" 1.000E-01 0.600 F 0.233 -0.381 i 691 0.66 Yes No
1996BA1 O c 1996-01-28.54017 1.000E-05 10:26:01.100 1.500E-01 0.600 F 0.171 0.012 +14° 07' 40.40" 1.000E-01 0.600 F 0.233 -0.541 19.7 V 0.70 0.49 i 691 0.92 Yes Yes
1996BT O C 1996-01-29.11863 1.000E-05 04:40:16.850 1.500E-01 0.600 F -0.520 -0.198 +04° 24' 02.70" 1.000E-01 0.600 F 0.253 0.247 20.1 V 0.70 0.39 i 691 0.61 Yes Yes
1996BT O C 1996-01-29.12175 1.000E-05 04:40:09.640 1.500E-01 0.600 F -0.520 0.603 +04° 23' 31.50" 1.000E-01 0.600 F 0.253 -0.428 i 691 1.42 Yes No
1996BT O C 1996-01-29.12473 1.000E-05 04:40:02.610 1.500E-01 0.600 F -0.520 -0.767 +04° 23' 02.90" 1.000E-01 0.600 F 0.253 0.136 i 691 1.50 Yes No
1996BT O C 1996-01-29.12787 1.000E-05 04:39:55.380 1.500E-01 0.600 F -0.520 0.453 +04° 22' 31.80" 1.000E-01 0.600 F 0.253 -0.226 i 691 0.97 Yes No
1996BZ3 O c 1996-01-29.44149 1.000E-05 09:30:24.830 1.500E-01 0.600 F 0.034 -0.115 +05° 35' 35.50" 1.000E-01 0.600 F 0.300 -0.189 17.8 V 0.70 0.48 i 691 0.38 Yes Yes
1996BZ3 O c 1996-01-29.46252 1.000E-05 09:30:24.750 1.500E-01 0.600 F 0.034 -0.112 +05° 35' 46.70" 1.000E-01 0.600 F 0.300 0.079 17.8 V 0.70 0.48 i 691 0.23 Yes Yes
1996BZ3 O c 1996-01-29.48365 1.000E-05 09:30:24.690 1.500E-01 0.600 F 0.034 -0.024 +05° 35' 57.40" 1.000E-01 0.600 F 0.300 -0.185 17.8 V 0.70 0.48 i 691 0.32 Yes Yes
2001WN5 O C 1996-02-10.39593 1.000E-05 09:32:55.960 1.500E-01 0.600 F 0.286 -0.592 +12° 14' 44.30" 1.000E-01 0.600 F -0.296 -0.017 21.4 V 0.70 0.02 a 691 0.99 Yes Yes
2001WN5 O C 1996-02-10.41719 1.000E-05 09:32:54.150 1.500E-01 0.600 F 0.286 -0.454 +12° 14' 52.30" 1.000E-01 0.600 F -0.296 -0.108 21.4 V 0.70 0.02 a 691 0.78 Yes Yes
2001WN5 O C 1996-02-10.43843 1.000E-05 09:32:52.370 1.500E-01 0.600 F 0.286 0.049 +12° 15' 00.50" 1.000E-01 0.600 F -0.296 0.024 21.4 V 0.70 0.02 a 691 0.09 Yes Yes
1995DW1 O C 1996-02-10.51153 1.000E-05 11:15:54.530 1.500E-01 0.600 F 0.722 -0.091 +22° 05' 12.00" 1.000E-01 0.600 F 0.263 -0.261 21.1 V 0.70 -0.33 i 691 0.46 Yes Yes
1995DW1 O C 1996-02-10.52329 1.000E-05 11:15:52.480 1.500E-01 0.600 F 0.722 -0.291 +22° 05' 17.90" 1.000E-01 0.600 F 0.263 0.085 i 691 0.51 Yes No
1995DW1 O C 1996-02-10.53510 1.000E-05 11:15:50.440 1.500E-01 0.600 F 0.722 -0.277 +22° 05' 23.20" 1.000E-01 0.600 F 0.263 -0.172 i 691 0.55 Yes No
1994CN2 O C 1996-02-15.39971 1.000E-05 10:44:21.080 1.500E-01 0.600 F 0.357 0.719 +10° 16' 56.20" 1.000E-01 0.600 F -0.008 0.268 19.3 V 0.70 0.05 a 691 1.28 Yes Yes
1994CN2 O C 1996-02-15.42176 1.000E-05 10:44:19.110 1.500E-01 0.600 F 0.357 0.581 +10° 17' 08.70" 1.000E-01 0.600 F -0.008 0.450 19.3 V 0.70 0.06 a 691 1.23 Yes Yes
1994CN2 O C 1996-02-15.44291 1.000E-05 10:44:17.230 1.500E-01 0.600 F 0.357 0.550 +10° 17' 20.40" 1.000E-01 0.600 F -0.008 0.352 19.1 V 0.70 -0.14 a 691 1.09 Yes Yes
1996DH O c 1996-02-18.19275 1.000E-05 09:20:17.430 1.500E-01 0.735 F 0.011 0.531 +05° 38' 17.90" 1.000E-01 0.735 F -0.127 -0.228 18.4 V 0.70 -0.09 i 691 0.79 Yes Yes
1996DH O c 1996-02-18.21366 1.000E-05 09:20:15.080 1.500E-01 0.735 F 0.011 0.510 +05° 38' 15.50" 1.000E-01 0.735 F -0.127 -0.340 18.3 V 0.70 -0.19 i 691 0.84 Yes Yes
1996DH O c 1996-02-18.28472 1.000E-05 09:20:07.100 1.500E-01 0.735 F 0.011 0.852 +05° 38' 08.10" 1.000E-01 0.735 F -0.127 0.111 18.2 V 0.70 -0.29 i 691 1.17 Yes Yes
1996DH O c 1996-02-18.30729 1.000E-05 09:20:04.520 1.500E-01 0.735 F 0.011 0.312 +05° 38' 05.50" 1.000E-01 0.735 F -0.127 0.030 18.0 V 0.70 -0.49 i 691 0.43 Yes Yes
1996DH O c 1996-02-18.32827 1.000E-05 09:20:02.150 1.500E-01 0.735 F 0.011 0.211 +05° 38' 03.10" 1.000E-01 0.735 F -0.127 -0.017 18.0 V 0.70 -0.49 i 691 0.29 Yes Yes
1996DH O c 1996-02-18.34923 1.000E-05 09:19:59.790 1.500E-01 0.735 F 0.011 0.188 +05° 38' 00.60" 1.000E-01 0.735 F -0.127 -0.155 17.9 V 0.70 -0.60 i 691 0.33 Yes Yes
1996DH O c 1996-02-19.24163 1.000E-05 09:18:22.740 1.500E-01 0.600 F 0.039 -0.118 +05° 36' 23.20" 1.000E-01 0.600 F -0.165 -0.252 i 691 0.46 Yes No
1996DH O c 1996-02-19.24532 1.000E-05 09:18:22.310 1.500E-01 0.600 F 0.039 -0.377 +05° 36' 23.00" 1.000E-01 0.600 F -0.165 -0.062 i 691 0.64 Yes No
1996DH O c 1996-02-19.24946 1.000E-05 09:18:21.860 1.500E-01 0.600 F 0.039 -0.183 +05° 36' 22.60" 1.000E-01 0.600 F -0.165 -0.024 i 691 0.31 Yes No
1996DH O c 1996-02-21.40272 1.000E-05 09:14:29.860 1.500E-01 0.600 F 0.053 3.256 +05° 32' 42.70" 1.000E-01 0.600 F -0.251 0.059 i 691 5.41 No No
1996DH O c 1996-02-21.40640 1.000E-05 09:14:29.260 1.500E-01 0.600 F 0.053 0.268 +05° 32' 42.90" 1.000E-01 0.600 F -0.251 0.630 i 691 1.14 Yes No
1996DH O c 1996-02-21.41031 1.000E-05 09:14:28.820 1.500E-01 0.600 F 0.053 0.038 +05° 32' 41.80" 1.000E-01 0.600 F -0.251 -0.076 i 691 0.14 Yes No
1996DH O c 1996-03-11.17546 1.000E-05 08:46:53.600 1.500E-01 0.600 F 0.046 -0.419 +05° 10' 11.10" 1.000E-01 0.600 F -0.084 0.082 19.6 V 0.70 0.52 i 691 0.71 Yes Yes
1996DH O c 1996-03-11.17951 1.000E-05 08:46:53.330 1.500E-01 0.600 F 0.046 -0.338 +05° 10' 10.80" 1.000E-01 0.600 F -0.084 0.022 19.5 V 0.70 0.42 i 691 0.57 Yes Yes
1996DH O c 1996-03-11.18387 1.000E-05 08:46:53.030 1.500E-01 0.600 F 0.046 -0.390 +05° 10' 10.60" 1.000E-01 0.600 F -0.084 0.079 19.4 V 0.70 0.32 i 691 0.67 Yes Yes
2002BJ2 O C 1996-03-12.47513 1.000E-05 14:30:16.820 1.500E-01 0.600 F 0.273 -0.179 -08° 01' 50.70" 1.000E-01 0.600 F -0.106 0.026 17.7 V 0.70 -0.94 a 691 0.32 Yes Yes
2002BJ2 O C 1996-03-12.49005 1.000E-05 14:30:14.410 1.500E-01 0.600 F 0.273 -0.137 -08° 02' 01.30" 1.000E-01 0.600 F -0.106 -0.239 17.6 V 0.70 -1.04 a 691 0.51 Yes Yes
2002BJ2 O C 1996-03-12.50495 1.000E-05 14:30:12.020 1.500E-01 0.600 F 0.563 -0.154 -08° 02' 11.30" 1.000E-01 0.600 F -0.153 0.113 17.7 V 0.70 -0.94 a 691 0.35 Yes Yes
1996FS1 O c 1996-03-17.25078 1.000E-05 10:20:10.290 1.500E-01 0.600 F 0.226 0.435 +11° 02' 32.50" 1.000E-01 0.600 F -0.274 -0.134 19.7 V 0.70 0.19 i 691 0.78 Yes Yes
1996FS1 O c 1996-03-17.27854 1.000E-05 10:20:07.480 1.500E-01 0.600 F 0.226 -0.531 +11° 04' 27.80" 1.000E-01 0.600 F -0.274 -0.054 19.6 V 0.70 0.08 i 691 0.92 Yes Yes
1996FS1 O c 1996-03-17.30057 1.000E-05 10:20:05.310 1.500E-01 0.600 F 0.140 -0.470 +11° 05' 58.90" 1.000E-01 0.600 F -0.222 -0.161 19.6 V 0.70 0.08 i 691 0.85 Yes Yes
1996DH O c 1996-03-18.12634 1.000E-05 08:40:31.370 1.500E-01 0.600 F -0.120 -0.092 +05° 03' 02.20" 1.000E-01 0.600 F 0.016 -0.066 19.8 V 0.70 0.54 i 691 0.19 Yes Yes
1996DH O c 1996-03-18.13911 1.000E-05 08:40:30.780 1.500E-01 0.600 F -0.120 0.167 +05° 03' 01.10" 1.000E-01 0.600 F 0.016 -0.346 19.6 V 0.70 0.34 i 691 0.64 Yes Yes
1996DH O c 1996-03-18.15216 1.000E-05 08:40:30.150 1.500E-01 0.600 F -0.120 0.031 +05° 03' 00.40" 1.000E-01 0.600 F 0.016 -0.204 19.8 V 0.70 0.54 i 691 0.34 Yes Yes
1996FS1 O c 1996-03-18.17931 1.000E-05 10:18:50.760 1.500E-01 0.600 F -0.354 0.577 +12° 04' 19.40" 1.000E-01 0.600 F -0.020 -0.364 20.1 V 0.70 0.45 i 691 1.16 Yes Yes
1996FS1 O c 1996-03-18.18484 1.000E-05 10:18:50.270 1.500E-01 0.600 F -0.354 0.657 +12° 04' 40.80" 1.000E-01 0.600 F -0.020 -0.215 20.0 V 0.70 0.35 i 691 1.18 Yes Yes
1996FS1 O c 1996-03-18.19094 1.000E-05 10:18:49.710 1.500E-01 0.600 F -0.354 0.465 +12° 05' 04.30" 1.000E-01 0.600 F -0.020 -0.139 19.9 V 0.70 0.25 i 691 0.83 Yes Yes
1996FS1 O c 1996-03-19.38207 1.000E-05 10:17:16.520 1.500E-01 0.600 F -0.547 -0.590 +13° 17' 17.10" 1.000E-01 0.600 F -0.568 0.195 20.0 V 0.70 0.19 i 691 1.06 Yes Yes
1996FS1 O c 1996-03-19.38788 1.000E-05 10:17:16.090 1.500E-01 0.600 F -0.547 -0.322 +13° 17' 36.90" 1.000E-01 0.600 F -0.568 0.042 19.8 V 0.70 -0.02 i 691 0.55 Yes Yes
1996FS1 O c 1996-03-19.39361 1.000E-05 10:17:15.640 1.500E-01 0.600 F -0.547 -0.458 +13° 17' 56.50" 1.000E-01 0.600 F -0.568 -0.024 19.9 V 0.70 0.08 i 691 0.78 Yes Yes
2016GU221 O c 1996-03-19.41375 1.000E-05 12:48:34.900 1.500E-01 0.600 F 0.060 1.042 +00° 01' 28.90" 1.000E-01 0.600 F -0.444 -0.093 21.0 V 0.70 0.14 i 691 1.84 Yes Yes
1996FT1 O c 1996-03-19.41650 1.000E-05 12:52:33.370 1.500E-01 0.600 F -0.049 -0.080 +00° 26' 18.60" 1.000E-01 0.600 F -0.510 -0.226 20.0 V 0.70 -0.53 i 691 0.46 Yes Yes
2016GU221 O c 1996-03-19.44254 1.000E-05 12:48:32.050 1.500E-01 0.600 F 0.060 0.999 +00° 01' 19.10" 1.000E-01 0.600 F -0.444 -0.625 i 691 2.09 Yes No
1996FT1 O c 1996-03-19.44526 1.000E-05 12:52:27.300 1.500E-01 0.600 F -0.049 -0.204 +00° 25' 40.70" 1.000E-01 0.600 F -0.510 -0.430 20.4 V 0.70 -0.13 i 691 0.91 Yes Yes
2016GU221 O c 1996-03-19.46777 1.000E-05 12:48:29.540 1.500E-01 0.600 F 0.060 0.636 +00° 01' 10.90" 1.000E-01 0.600 F -0.444 -0.698 i 691 1.67 Yes No
1996FT1 O c 1996-03-19.47046 1.000E-05 12:52:22.090 1.500E-01 0.600 F -0.049 0.175 +00° 25' 08.20" 1.000E-01 0.600 F -0.510 0.029 19.9 V 0.70 -0.63 i 691 0.37 Yes Yes
1996FT1 O c 1996-03-20.24029 1.000E-05 12:50:09.330 1.500E-01 0.600 F -0.049 0.538 +00° 08' 58.80" 1.000E-01 0.600 F -0.510 0.678 20.5 V 0.70 -0.07 i 691 1.69 Yes Yes
1996FT1 O c 1996-03-20.24850 1.000E-05 12:50:08.060 1.500E-01 0.600 F -0.049 5.629 +00° 08' 49.10" 1.000E-01 0.600 F -0.510 0.962 21.6 V 0.70 1.03 i 691 8.12 No Yes
1996FT1 O c 1996-03-20.25601 1.000E-05 12:50:06.200 1.500E-01 0.600 F -0.049 -0.112 +00° 08' 38.80" 1.000E-01 0.600 F -0.510 -0.212 20.8 V 0.70 0.23 i 691 0.45 Yes Yes
1996FS1 O c 1996-03-22.27201 1.000E-05 10:14:19.420 1.500E-01 0.600 F -0.073 -0.022 +15° 45' 00.10" 1.000E-01 0.600 F 0.269 0.037 20.8 V 0.70 0.61 i 691 0.07 Yes Yes
1996FS1 O c 1996-03-22.27706 1.000E-05 10:14:19.120 1.500E-01 0.600 F -0.073 -0.076 +15° 45' 13.50" 1.000E-01 0.600 F 0.269 -0.218 20.9 V 0.70 0.71 i 691 0.39 Yes Yes
1996FS1 O c 1996-03-22.28238 1.000E-05 10:14:18.810 1.500E-01 0.600 F -0.073 -0.054 +15° 45' 27.80" 1.000E-01 0.600 F 0.269 -0.292 20.6 V 0.70 0.41 i 691 0.50 Yes Yes
2016GU221 O c 1996-03-22.32816 1.000E-05 12:43:46.890 1.500E-01 0.600 F 0.300 -0.724 -00° 14' 38.40" 1.000E-01 0.600 F -0.472 0.181 20.3 V 0.70 -0.37 i 691 1.32 Yes Yes
1996FT1 O c 1996-03-22.32865 1.000E-05 12:44:29.720 1.500E-01 0.735 F 0.029 -0.082 -00° 29' 46.50" 1.000E-01 0.735 F -0.311 -0.181 20.3 V 0.70 -0.37 i 691 0.29 Yes Yes
2016GU221 O c 1996-03-22.33408 1.000E-05 12:43:46.230 1.500E-01 0.600 F 0.300 -0.995 -00° 14' 40.80" 1.000E-01 0.600 F -0.472 -0.190 i 691 1.77 Yes No
1996FT1 O c 1996-03-22.33457 1.000E-05 12:44:28.730 1.500E-01 0.735 F 0.029 0.504 -00° 29' 51.60" 1.000E-01 0.735 F -0.311 0.740 21.2 V 0.70 0.53 i 691 1.29 Yes Yes
2016GU221 O c 1996-03-22.34057 1.000E-05 12:43:45.530 1.500E-01 0.600 F 0.300 -0.935 -00° 14' 42.70" 1.000E-01 0.600 F -0.472 0.135 i 691 1.67 Yes No
1996FT1 O c 1996-03-22.34106 1.000E-05 12:44:27.610 1.500E-01 0.735 F 0.029 0.623 -00° 29' 58.30" 1.000E-01 0.735 F -0.311 0.638 20.6 V 0.70 -0.07 i 691 1.29 Yes Yes
1996FT1 O C 1996-03-22.40667 1.000E-05 12:44:16.160 1.500E-01 0.735 F -0.041 -1.195 -00° 31' 06.40" 1.000E-01 0.735 F -0.407 -0.919 21.1 V 0.70 0.43 a 691 2.22 Yes Yes
1996FT1 O C 1996-03-22.42847 1.000E-05 12:44:12.520 1.500E-01 0.735 F -0.041 -0.250 -00° 31' 27.70" 1.000E-01 0.735 F -0.407 -0.240 20.4 V 0.70 -0.27 a 691 0.51 Yes Yes
1996FT1 O C 1996-03-22.45076 1.000E-05 12:44:08.790 1.500E-01 0.735 F -0.041 -0.107 -00° 31' 49.90" 1.000E-01 0.735 F -0.407 -0.017 21.0 V 0.70 0.33 a 691 0.16 Yes Yes
1993DQ1 O c 1996-03-23.14073 1.000E-05 09:30:59.750 1.500E-01 0.600 F -0.118 0.921 +08° 14' 00.00" 1.000E-01 0.600 F -0.386 -0.507 i 691 1.76 Yes No
1993DQ1 O c 1996-03-23.14843 1.000E-05 09:30:59.360 1.500E-01 0.600 F -0.118 1.244 +08° 14' 01.30" 1.000E-01 0.600 F -0.386 -0.627 i 691 2.33 Yes No
1993DQ1 O c 1996-03-23.15640 1.000E-05 09:30:58.920 1.500E-01 0.600 F -0.118 1.041 +08° 14' 03.00" 1.000E-01 0.600 F -0.386 -0.394 20.4 V 0.70 0.03 i 691 1.86 Yes Yes
1996FT1 O c 1996-03-26.24713 1.000E-05 12:36:03.090 1.500E-01 0.600 F 0.283 -0.136 -01° 26' 48.80" 1.000E-01 0.600 F -0.567 0.542 i 691 1.04 Yes No
1996FT1 O c 1996-03-26.25180 1.000E-05 12:36:02.490 1.500E-01 0.600 F 0.283 0.042 -01° 26' 52.50" 1.000E-01 0.600 F -0.567 0.357 20.3 V 0.70 -0.50 i 691 0.67 Yes Yes
1996FT1 O c 1996-03-26.25582 1.000E-05 12:36:01.940 1.500E-01 0.600 F 0.283 -0.294 -01° 26' 55.70" 1.000E-01 0.600 F -0.567 0.181 i 691 0.64 Yes No
2016GU221 O C 1996-03-26.33902 1.000E-05 12:36:30.610 1.500E-01 0.600 F 0.283 -0.329 -00° 38' 40.10" 1.000E-01 0.600 F -0.567 0.107 i 691 0.62 Yes No
2016GU221 O C 1996-03-26.37038 1.000E-05 12:36:26.880 1.500E-01 0.600 F 0.283 -0.222 -00° 38' 51.80" 1.000E-01 0.600 F -0.567 0.229 20.7 V 0.70 0.32 i 691 0.57 Yes Yes
2016GU221 O C 1996-03-26.39223 1.000E-05 12:36:24.080 1.500E-01 0.600 F 0.283 -3.223 -00° 39' 03.70" 1.000E-01 0.600 F -0.567 -3.432 i 691 7.67 No No
1996FR3 O c 1996-03-27.38668 1.000E-05 13:52:00.530 1.500E-01 0.600 F -0.009 -0.028 -07° 04' 18.50" 1.000E-01 0.600 F -0.173 0.736 17.7 V 0.70 0.11 i 691 1.23 Yes Yes
1996FR3 O c 1996-03-27.40783 1.000E-05 13:51:56.690 1.500E-01 0.600 F -0.314 0.165 -07° 04' 06.30" 1.000E-01 0.600 F 0.357 -0.090 17.7 V 0.70 0.11 i 691 0.31 Yes Yes
1996FR3 O c 1996-03-27.42889 1.000E-05 13:51:52.890 1.500E-01 0.600 F -0.314 0.356 -07° 03' 53.90" 1.000E-01 0.600 F 0.357 -0.154 17.7 V 0.70 0.11 i 691 0.65 Yes Yes
1996FR3 O c 1996-03-28.23208 1.000E-05 13:49:31.960 1.500E-01 0.900 F -0.314 -0.168 -06° 56' 00.30" 1.000E-01 0.900 F 0.357 0.112 i 691 0.23 Yes No
1996FR3 O c 1996-03-28.23604 1.000E-05 13:49:31.280 1.500E-01 0.900 F -0.314 0.228 -06° 55' 58.00" 1.000E-01 0.900 F 0.357 0.106 i 691 0.28 Yes No
1996FR3 O c 1996-03-28.23995 1.000E-05 13:49:30.560 1.500E-01 0.900 F -0.314 -0.100 -06° 55' 55.90" 1.000E-01 0.900 F 0.357 -0.071 i 691 0.14 Yes No
1996FR3 O c 1996-03-28.41327 1.000E-05 13:48:59.480 1.500E-01 0.900 F -0.314 -0.003 -06° 54' 14.30" 1.000E-01 0.900 F 0.357 -0.014 i 691 0.02 Yes No
1996FR3 O c 1996-03-28.41850 1.000E-05 13:48:58.530 1.500E-01 0.900 F -0.314 -0.181 -06° 54' 11.20" 1.000E-01 0.900 F 0.357 0.002 i 691 0.20 Yes No
1996FR3 O c 1996-03-28.42404 1.000E-05 13:48:57.540 1.500E-01 0.900 F -0.314 -0.131 -06° 54' 08.00" 1.000E-01 0.900 F 0.357 -0.066 i 691 0.16 Yes No
1996FR3 O c 1996-03-28.48175 1.000E-05 13:48:47.220 1.500E-01 0.900 F -0.314 -0.083 -06° 53' 34.00" 1.000E-01 0.900 F 0.357 -0.183 i 691 0.22 Yes No
1996FR3 O c 1996-03-28.48614 1.000E-05 13:48:46.410 1.500E-01 0.900 F -0.314 -0.485 -06° 53' 31.40" 1.000E-01 0.900 F 0.357 -0.183 i 691 0.58 Yes No
1996FR3 O c 1996-03-28.49085 1.000E-05 13:48:45.620 1.500E-01 0.900 F -0.314 0.254 -06° 53' 28.50" 1.000E-01 0.900 F 0.357 -0.074 i 691 0.29 Yes No
1996GQ O C 1996-04-09.26336 1.000E-05 12:52:05.620 1.500E-01 0.600 F 0.083 0.604 +00° 30' 15.70" 1.000E-01 0.600 F -0.765 0.110 19.8 V 0.70 -0.44 a 691 1.06 Yes Yes
1996GQ O C 1996-04-09.28559 1.000E-05 12:52:07.360 1.500E-01 0.600 F 0.083 0.452 +00° 29' 45.40" 1.000E-01 0.600 F -0.765 0.132 20.0 V 0.70 -0.24 a 691 0.81 Yes Yes
1996GQ O C 1996-04-09.30739 1.000E-05 12:52:09.070 1.500E-01 0.600 F 0.083 0.449 +00° 29' 15.60" 1.000E-01 0.600 F -0.765 0.042 20.1 V 0.70 -0.14 a 691 0.78 Yes Yes
1996GQ O c 1996-04-11.27824 1.000E-05 12:55:10.030 1.500E-01 0.600 F -0.128 -0.665 -00° 13' 20.90" 1.000E-01 0.600 F -0.891 0.133 20.2 V 0.70 -0.22 i 691 1.17 Yes Yes
Didymos O c 1996-04-11.27921 1.000E-05 12:56:33.880 1.500E-01 0.600 F -0.074 -0.073 -00° 29' 16.80" 1.000E-01 0.600 F -0.971 0.468 20.9 V 0.70 0.26 i 691 0.79 Yes Yes
1996GQ O c 1996-04-11.29968 1.000E-05 12:55:11.550 1.500E-01 0.600 F -0.074 -0.253 -00° 13' 47.30" 1.000E-01 0.600 F -0.971 0.290 20.0 V 0.70 -0.42 i 691 0.66 Yes Yes
Didymos O c 1996-04-11.30061 1.000E-05 12:56:32.090 1.500E-01 0.600 F -0.074 0.376 -00° 29' 07.70" 1.000E-01 0.600 F -0.971 0.416 20.2 V 0.70 -0.44 i 691 0.94 Yes Yes
1996GQ O c 1996-04-11.32120 1.000E-05 12:55:13.030 1.500E-01 0.600 F -0.074 -0.476 -00° 14' 13.70" 1.000E-01 0.600 F -0.971 0.436 19.8 V 0.70 -0.62 i 691 1.12 Yes Yes

[1-200] [201-400] [401-600] [601-800] [801-1000] [1001-1200] [1201-1400] [1401-1600] [1601-1800] [1801-2000] [2001-2200] [2201-2400] [2401-2600] [2601-2800] [2801-3000] [3001-3200] [3201-3400] [3401-3600] [3601-3800] [3801-4000] [4001-4200] [4201-4400] [4401-4600] [4601-4800] [4801-5000] [5001-5200] [5201-5400] [5401-5600] [5601-5800] [5801-6000] [6001-6200] [6201-6400] [6401-6600] [6601-6800] [6801-7000] [7001-7200] [7201-7400] [7401-7600] [7601-7800] [7801-8000] [8001-8200] [8201-8400] [8401-8600] [8601-8800] [8801-9000] [9001-9200] [9201-9400] [9401-9600] [9601-9800] [9801-10000] [10001-10200] [10201-10400] [10401-10600] [10601-10800] [10801-11000] [11001-11200] [11201-11400] [11401-11600] [11601-11800] [11801-12000] [12001-12200] [12201-12400] [12401-12600] [12601-12800] [12801-13000] [13001-13200] [13201-13400] [13401-13600] [13601-13800] [13801-14000] [14001-14200] [14201-14400] [14401-14600] [14601-14800] [14801-15000] [15001-15200] [15201-15400] [15401-15600] [15601-15800] [15801-16000] [16001-16200] [16201-16400] [16401-16600] [16601-16800] [16801-17000] [17001-17200] [17201-17400] [17401-17600] [17601-17800] [17801-18000] [18001-18200] [18201-18400] [18401-18600] [18601-18800] [18801-19000] [19001-19200] [19201-19400] [19401-19600] [19601-19800] [19801-20000] [20001-20200] [20201-20400] [20401-20600] [20601-20800] [20801-21000] [21001-21200] [21201-21400] [21401-21600] [21601-21800] [21801-22000] [22001-22200] [22201-22400] [22401-22600] [22601-22800] [22801-23000] [23001-23200] [23201-23400] [23401-23600] [23601-23800] [23801-24000] [24001-24200] [24201-24400] [24401-24600] [24601-24800] [24801-25000] [25001-25200] [25201-25400] [25401-25600] [25601-25800] [25801-26000] [26001-26200] [26201-26400] [26401-26600] [26601-26800] [26801-27000] [27001-27200] [27201-27400] [27401-27600] [27601-27800] [27801-28000] [28001-28200] [28201-28400] [28401-28600] [28601-28800] [28801-29000] [29001-29200] [29201-29400] [29401-29600] [29601-29800] [29801-30000] [30001-30200] [30201-30400] [30401-30600] [30601-30800] [30801-31000] [31001-31200] [31201-31400] [31401-31600] [31601-31800] [31801-32000] [32001-32200] [32201-32400] [32401-32600] [32601-32800] [32801-33000] [33001-33200] [33201-33400] [33401-33600] [33601-33800] [33801-34000] [34001-34200] [34201-34400] [34401-34600] [34601-34800] [34801-35000] [35001-35200] [35201-35400] [35401-35600] [35601-35800] [35801-36000] [36001-36200] [36201-36400] [36401-36600] [36601-36800] [36801-37000] [37001-37200] [37201-37400] [37401-37600] [37601-37800] [37801-38000] [38001-38200] [38201-38400] [38401-38600] [38601-38800] [38801-39000] [39001-39200] [39201-39400] [39401-39600] [39601-39800] [39801-40000] [40001-40200] [40201-40400] [40401-40600] [40601-40800] [40801-41000] [41001-41200] [41201-41400] [41401-41600] [41601-41800] [41801-42000] [42001-42200] [42201-42400] [42401-42600] [42601-42800] [42801-43000] [43001-43200] [43201-43400] [43401-43600] [43601-43800] [43801-44000] [44001-44200] [44201-44400] [44401-44600] [44601-44800] [44801-45000] [45001-45200] [45201-45400] [45401-45600] [45601-45800] [45801-46000] [46001-46200] [46201-46400] [46401-46600] [46601-46800] [46801-47000] [47001-47200] [47201-47400] [47401-47600] [47601-47800] [47801-48000] [48001-48200] [48201-48400] [48401-48600] [48601-48800] [48801-49000] [49001-49200] [49201-49400] [49401-49600] [49601-49800] [49801-50000] [50001-50200] [50201-50388]